KFTW

Fort Worth Meacham International Airport

Fort Worth, Texas, USA
METAR KFTW 221453Z 21008KT 10SM SCT012 25/21 A3005 RMK AO2 SLP165 T02500206 53018
Observed Flight Rules
May-22 @ 14:53 UTC (59 minutes ago) Visual Flight Rules
Wind Visibility Clouds
210° at 8 knots 10 miles
  • Scattered at 1,200' AGL
Temperatures Readings
Current 25°C / 77°F
Dewpoint 21°C / 70°F
Humidity 79%
Altimeter 30.05" Hg
Pressure 1016.5 hPa
Elevation 214
METAR KFTW 221453Z 21008KT 10SM SCT012 25/21 A3005 RMK AO2 SLP165 T02500206 53018
Observed Flight Rules
May-22 @ 14:53 UTC
(59 minutes ago)
VFR
Wind Visibility
210° at 8 knots 10 miles
Clouds
  • Scattered at 1,200' AGL
Temperature Dewpoint
25°C / 77°F 21°C / 70°F
Humidity Altimeter Pressure
79% 30.05" Hg 1016.5 hPa